Humbie, United Kingdom
Current Conditions -  °F | °C
As of 2:20 AM on Tuesday 23 Dec 2014 (Local Time) from EGPH Reporting Station
Light Rain Light Rain  
Wind Chill: 37°   Ceiling: 4800
Heat Index: 45°   Visibility: 6mi
Dew Point: 41°   Wind: 16mph
Humidity: 87%   Direction: 240°WSW
Pressure: 29.62"   Gusts: NA
Location:  55.87°N, 2.88°W
Report Text: EGPH 230220Z 24014KT 9999 -RA BKN048 07/05 Q1003
Loading
Personal Weather Stations






























Interactive Weather Map New forecast layout! Learn more

10-Day Weather Forecast

Advertisements
Track Severe Weather on mobile